sensor_id;sensor_type;location;lat;lon;timestamp;pressure;altitude;pressure_sealevel;temperature;humidity
40708;BME280;26392;42.696;23.350;2023-02-23T00:01:22;95138.81;;;6.88;100.00
40708;BME280;26392;42.696;23.350;2023-02-23T00:03:48;95143.41;;;6.88;100.00
40708;BME280;26392;42.696;23.350;2023-02-23T00:06:16;95149.06;;;6.86;100.00
40708;BME280;26392;42.696;23.350;2023-02-23T00:08:41;95149.44;;;6.78;100.00
40708;BME280;26392;42.696;23.350;2023-02-23T00:11:09;95142.69;;;6.69;100.00
40708;BME280;26392;42.696;23.350;2023-02-23T00:13:38;95158.59;;;6.65;100.00
40708;BME280;26392;42.696;23.350;2023-02-23T00:16:09;95158.72;;;6.59;100.00
40708;BME280;26392;42.696;23.350;2023-02-23T00:18:37;95152.34;;;6.65;100.00
40708;BME280;26392;42.696;23.350;2023-02-23T00:23:58;95157.16;;;6.51;100.00
40708;BME280;26392;42.696;23.350;2023-02-23T00:26:27;95154.56;;;6.44;100.00
40708;BME280;26392;42.696;23.350;2023-02-23T00:28:55;95149.38;;;6.43;100.00
40708;BME280;26392;42.696;23.350;2023-02-23T00:31:22;95148.66;;;6.36;100.00
40708;BME280;26392;42.696;23.350;2023-02-23T00:33:54;95155.81;;;6.30;100.00
40708;BME280;26392;42.696;23.350;2023-02-23T00:36:22;95145.28;;;5.98;100.00
40708;BME280;26392;42.696;23.350;2023-02-23T00:38:52;95154.00;;;6.00;100.00
40708;BME280;26392;42.696;23.350;2023-02-23T00:41:17;95159.25;;;5.95;100.00
40708;BME280;26392;42.696;23.350;2023-02-23T00:44:03;95149.34;;;5.89;100.00
40708;BME280;26392;42.696;23.350;2023-02-23T00:46:29;95149.94;;;5.91;100.00
40708;BME280;26392;42.696;23.350;2023-02-23T00:48:56;95158.19;;;5.96;100.00
40708;BME280;26392;42.696;23.350;2023-02-23T00:51:23;95155.09;;;5.93;100.00
40708;BME280;26392;42.696;23.350;2023-02-23T00:53:55;95150.69;;;5.98;100.00
40708;BME280;26392;42.696;23.350;2023-02-23T00:56:20;95150.53;;;5.93;100.00
40708;BME280;26392;42.696;23.350;2023-02-23T00:58:46;95147.09;;;5.86;100.00
40708;BME280;26392;42.696;23.350;2023-02-23T01:01:12;95142.28;;;5.88;100.00
40708;BME280;26392;42.696;23.350;2023-02-23T01:03:39;95142.66;;;5.92;100.00
40708;BME280;26392;42.696;23.350;2023-02-23T01:06:08;95151.59;;;5.92;100.00
40708;BME280;26392;42.696;23.350;2023-02-23T01:08:37;95149.94;;;5.91;100.00
40708;BME280;26392;42.696;23.350;2023-02-23T01:11:08;95148.06;;;5.92;100.00
40708;BME280;26392;42.696;23.350;2023-02-23T01:13:35;95150.41;;;5.88;100.00
40708;BME280;26392;42.696;23.350;2023-02-23T01:16:10;95147.91;;;5.87;100.00
40708;BME280;26392;42.696;23.350;2023-02-23T01:18:37;95146.84;;;5.88;100.00
40708;BME280;26392;42.696;23.350;2023-02-23T01:21:04;95148.84;;;5.80;100.00
40708;BME280;26392;42.696;23.350;2023-02-23T01:23:30;95140.72;;;5.80;100.00
40708;BME280;26392;42.696;23.350;2023-02-23T01:25:55;95150.19;;;5.71;100.00
40708;BME280;26392;42.696;23.350;2023-02-23T01:28:21;95133.94;;;5.59;100.00
40708;BME280;26392;42.696;23.350;2023-02-23T01:30:46;95138.16;;;5.55;100.00
40708;BME280;26392;42.696;23.350;2023-02-23T01:33:12;95146.47;;;5.54;100.00
40708;BME280;26392;42.696;23.350;2023-02-23T01:35:38;95141.91;;;5.54;100.00
40708;BME280;26392;42.696;23.350;2023-02-23T01:38:03;95144.94;;;5.46;100.00
40708;BME280;26392;42.696;23.350;2023-02-23T01:40:29;95145.00;;;5.39;100.00
40708;BME280;26392;42.696;23.350;2023-02-23T01:43:10;95148.81;;;5.32;100.00
40708;BME280;26392;42.696;23.350;2023-02-23T01:45:36;95147.34;;;5.36;100.00
40708;BME280;26392;42.696;23.350;2023-02-23T01:48:46;95138.41;;;5.35;100.00
40708;BME280;26392;42.696;23.350;2023-02-23T01:53:25;95145.03;;;5.21;100.00
40708;BME280;26392;42.696;23.350;2023-02-23T01:55:56;95144.44;;;5.19;100.00
40708;BME280;26392;42.696;23.350;2023-02-23T01:58:23;95132.69;;;5.07;100.00
40708;BME280;26392;42.696;23.350;2023-02-23T02:00:56;95133.09;;;5.10;100.00
40708;BME280;26392;42.696;23.350;2023-02-23T02:03:37;95141.78;;;5.12;100.00
40708;BME280;26392;42.696;23.350;2023-02-23T02:06:06;95133.25;;;5.15;100.00
40708;BME280;26392;42.696;23.350;2023-02-23T02:08:36;95131.81;;;5.13;100.00
40708;BME280;26392;42.696;23.350;2023-02-23T02:11:13;95133.25;;;5.15;100.00
40708;BME280;26392;42.696;23.350;2023-02-23T02:22:27;95133.25;;;5.15;100.00
40708;BME280;26392;42.696;23.350;2023-02-23T02:40:08;95148.47;;;4.91;100.00
40708;BME280;26392;42.696;23.350;2023-02-23T02:42:50;95134.16;;;4.91;100.00
40708;BME280;26392;42.696;23.350;2023-02-23T02:53:27;95127.06;;;4.90;100.00
40708;BME280;26392;42.696;23.350;2023-02-23T02:55:59;95137.28;;;4.88;100.00
40708;BME280;26392;42.696;23.350;2023-02-23T02:58:26;95141.88;;;4.87;100.00
40708;BME280;26392;42.696;23.350;2023-02-23T03:00:53;95143.97;;;4.85;100.00
40708;BME280;26392;42.696;23.350;2023-02-23T03:03:45;95136.91;;;4.84;100.00
40708;BME280;26392;42.696;23.350;2023-02-23T03:06:33;95143.44;;;4.77;100.00
40708;BME280;26392;42.696;23.350;2023-02-23T03:17:52;95133.56;;;4.64;100.00
40708;BME280;26392;42.696;23.350;2023-02-23T03:20:46;95141.69;;;4.64;100.00
40708;BME280;26392;42.696;23.350;2023-02-23T03:23:44;95141.06;;;4.62;100.00
40708;BME280;26392;42.696;23.350;2023-02-23T03:27:16;95140.47;;;4.60;100.00
40708;BME280;26392;42.696;23.350;2023-02-23T03:30:18;95146.53;;;4.55;100.00
40708;BME280;26392;42.696;23.350;2023-02-23T03:33:14;95146.19;;;4.45;100.00
40708;BME280;26392;42.696;23.350;2023-02-23T03:36:22;95153.47;;;4.44;100.00
40708;BME280;26392;42.696;23.350;2023-02-23T03:39:32;95161.25;;;4.34;100.00
40708;BME280;26392;42.696;23.350;2023-02-23T03:42:23;95164.22;;;4.26;100.00
40708;BME280;26392;42.696;23.350;2023-02-23T03:45:15;95160.53;;;4.20;100.00
40708;BME280;26392;42.696;23.350;2023-02-23T03:48:04;95155.97;;;4.21;100.00
40708;BME280;26392;42.696;23.350;2023-02-23T03:50:53;95158.38;;;4.29;100.00
40708;BME280;26392;42.696;23.350;2023-02-23T03:53:53;95171.75;;;4.17;100.00
40708;BME280;26392;42.696;23.350;2023-02-23T03:56:43;95162.44;;;4.13;100.00
40708;BME280;26392;42.696;23.350;2023-02-23T03:59:33;95167.00;;;4.13;100.00
40708;BME280;26392;42.696;23.350;2023-02-23T04:02:20;95168.44;;;4.15;100.00
40708;BME280;26392;42.696;23.350;2023-02-23T04:05:09;95167.88;;;4.07;100.00
40708;BME280;26392;42.696;23.350;2023-02-23T04:07:54;95169.91;;;4.11;100.00
40708;BME280;26392;42.696;23.350;2023-02-23T04:10:45;95177.16;;;4.17;100.00
40708;BME280;26392;42.696;23.350;2023-02-23T04:13:34;95169.88;;;4.18;100.00
40708;BME280;26392;42.696;23.350;2023-02-23T04:16:07;95167.75;;;4.20;100.00
40708;BME280;26392;42.696;23.350;2023-02-23T04:18:35;95171.59;;;4.12;100.00
40708;BME280;26392;42.696;23.350;2023-02-23T04:21:02;95172.88;;;4.03;100.00
40708;BME280;26392;42.696;23.350;2023-02-23T04:23:28;95166.09;;;3.94;100.00
40708;BME280;26392;42.696;23.350;2023-02-23T04:25:54;95170.47;;;3.88;100.00
40708;BME280;26392;42.696;23.350;2023-02-23T04:28:21;95161.13;;;3.91;100.00
40708;BME280;26392;42.696;23.350;2023-02-23T04:30:47;95169.31;;;4.09;100.00
40708;BME280;26392;42.696;23.350;2023-02-23T04:33:13;95170.75;;;4.12;100.00
40708;BME280;26392;42.696;23.350;2023-02-23T04:35:38;95170.91;;;4.17;100.00
40708;BME280;26392;42.696;23.350;2023-02-23T04:38:04;95170.25;;;4.21;100.00
40708;BME280;26392;42.696;23.350;2023-02-23T04:40:29;95167.34;;;4.23;100.00
40708;BME280;26392;42.696;23.350;2023-02-23T04:42:55;95167.34;;;4.23;100.00
40708;BME280;26392;42.696;23.350;2023-02-23T04:45:22;95175.22;;;4.24;100.00
40708;BME280;26392;42.696;23.350;2023-02-23T04:47:48;95164.03;;;4.21;100.00
40708;BME280;26392;42.696;23.350;2023-02-23T04:50:14;95171.47;;;4.25;100.00
40708;BME280;26392;42.696;23.350;2023-02-23T04:52:40;95170.00;;;4.30;100.00
40708;BME280;26392;42.696;23.350;2023-02-23T04:55:07;95172.31;;;4.26;100.00
40708;BME280;26392;42.696;23.350;2023-02-23T04:57:33;95169.00;;;4.24;100.00
40708;BME280;26392;42.696;23.350;2023-02-23T04:59:58;95176.56;;;4.09;100.00
40708;BME280;26392;42.696;23.350;2023-02-23T05:02:24;95169.78;;;3.99;100.00
40708;BME280;26392;42.696;23.350;2023-02-23T05:04:50;95178.66;;;4.07;100.00
40708;BME280;26392;42.696;23.350;2023-02-23T05:07:16;95168.72;;;4.07;100.00
40708;BME280;26392;42.696;23.350;2023-02-23T05:09:41;95171.66;;;3.99;100.00
40708;BME280;26392;42.696;23.350;2023-02-23T05:12:07;95175.97;;;4.07;100.00
40708;BME280;26392;42.696;23.350;2023-02-23T05:14:33;95182.63;;;4.04;100.00
40708;BME280;26392;42.696;23.350;2023-02-23T05:16:58;95182.22;;;4.00;100.00
40708;BME280;26392;42.696;23.350;2023-02-23T05:19:24;95176.81;;;4.00;100.00
40708;BME280;26392;42.696;23.350;2023-02-23T05:21:50;95179.50;;;4.00;100.00
40708;BME280;26392;42.696;23.350;2023-02-23T05:24:17;95194.09;;;3.93;100.00
40708;BME280;26392;42.696;23.350;2023-02-23T05:26:43;95196.19;;;3.91;100.00
40708;BME280;26392;42.696;23.350;2023-02-23T05:29:09;95188.09;;;3.91;100.00
40708;BME280;26392;42.696;23.350;2023-02-23T05:31:34;95197.03;;;3.85;100.00
40708;BME280;26392;42.696;23.350;2023-02-23T05:34:00;95198.00;;;3.97;100.00
40708;BME280;26392;42.696;23.350;2023-02-23T05:36:25;95191.16;;;3.94;100.00
40708;BME280;26392;42.696;23.350;2023-02-23T05:38:51;95200.94;;;3.95;100.00
40708;BME280;26392;42.696;23.350;2023-02-23T05:41:19;95204.00;;;3.99;100.00
40708;BME280;26392;42.696;23.350;2023-02-23T05:43:46;95202.13;;;3.99;100.00
40708;BME280;26392;42.696;23.350;2023-02-23T05:46:15;95211.84;;;4.07;100.00
40708;BME280;26392;42.696;23.350;2023-02-23T05:48:41;95209.09;;;4.14;100.00
40708;BME280;26392;42.696;23.350;2023-02-23T05:51:10;95210.72;;;4.21;100.00
40708;BME280;26392;42.696;23.350;2023-02-23T05:53:36;95215.66;;;4.24;100.00
40708;BME280;26392;42.696;23.350;2023-02-23T05:56:03;95214.03;;;4.23;100.00
40708;BME280;26392;42.696;23.350;2023-02-23T05:58:30;95218.91;;;4.33;100.00
40708;BME280;26392;42.696;23.350;2023-02-23T06:00:55;95225.75;;;4.36;100.00
40708;BME280;26392;42.696;23.350;2023-02-23T06:03:21;95231.16;;;4.36;100.00
40708;BME280;26392;42.696;23.350;2023-02-23T06:05:55;95226.25;;;4.26;100.00
40708;BME280;26392;42.696;23.350;2023-02-23T06:08:21;95224.88;;;4.42;100.00
40708;BME280;26392;42.696;23.350;2023-02-23T06:10:47;95229.72;;;4.58;100.00
40708;BME280;26392;42.696;23.350;2023-02-23T06:13:13;95241.06;;;4.67;100.00
40708;BME280;26392;42.696;23.350;2023-02-23T06:15:39;95221.31;;;4.73;100.00
40708;BME280;26392;42.696;23.350;2023-02-23T06:18:05;95241.59;;;4.82;100.00
40708;BME280;26392;42.696;23.350;2023-02-23T06:20:31;95234.69;;;4.86;100.00
40708;BME280;26392;42.696;23.350;2023-02-23T06:22:56;95238.44;;;4.85;100.00
40708;BME280;26392;42.696;23.350;2023-02-23T06:25:22;95248.47;;;4.78;100.00
40708;BME280;26392;42.696;23.350;2023-02-23T06:27:47;95244.38;;;4.69;100.00
40708;BME280;26392;42.696;23.350;2023-02-23T06:30:13;95251.00;;;4.73;100.00
40708;BME280;26392;42.696;23.350;2023-02-23T06:32:39;95250.22;;;4.91;100.00
40708;BME280;26392;42.696;23.350;2023-02-23T06:35:05;95233.69;;;5.06;100.00
40708;BME280;26392;42.696;23.350;2023-02-23T06:37:32;95241.66;;;5.19;100.00
40708;BME280;26392;42.696;23.350;2023-02-23T06:39:57;95249.84;;;5.31;100.00
40708;BME280;26392;42.696;23.350;2023-02-23T06:42:23;95253.44;;;5.25;100.00
40708;BME280;26392;42.696;23.350;2023-02-23T06:44:49;95252.09;;;5.34;100.00
40708;BME280;26392;42.696;23.350;2023-02-23T06:47:14;95246.69;;;5.15;100.00
40708;BME280;26392;42.696;23.350;2023-02-23T06:49:40;95256.63;;;4.97;100.00
40708;BME280;26392;42.696;23.350;2023-02-23T06:52:06;95251.97;;;4.79;100.00
40708;BME280;26392;42.696;23.350;2023-02-23T06:54:32;95254.09;;;4.77;100.00
40708;BME280;26392;42.696;23.350;2023-02-23T06:56:58;95254.25;;;4.82;100.00
40708;BME280;26392;42.696;23.350;2023-02-23T06:59:24;95259.81;;;4.87;100.00
40708;BME280;26392;42.696;23.350;2023-02-23T07:01:50;95263.19;;;5.07;100.00
40708;BME280;26392;42.696;23.350;2023-02-23T07:04:15;95249.00;;;5.12;100.00
40708;BME280;26392;42.696;23.350;2023-02-23T07:06:40;95254.88;;;5.27;100.00
40708;BME280;26392;42.696;23.350;2023-02-23T07:09:06;95260.38;;;5.57;100.00
40708;BME280;26392;42.696;23.350;2023-02-23T07:11:31;95252.09;;;5.71;100.00
40708;BME280;26392;42.696;23.350;2023-02-23T07:13:58;95249.16;;;5.91;100.00
40708;BME280;26392;42.696;23.350;2023-02-23T07:16:23;95252.69;;;6.10;100.00
40708;BME280;26392;42.696;23.350;2023-02-23T07:18:49;95244.22;;;6.06;100.00
40708;BME280;26392;42.696;23.350;2023-02-23T07:21:15;95257.47;;;6.26;100.00
40708;BME280;26392;42.696;23.350;2023-02-23T07:23:40;95254.34;;;6.41;100.00
40708;BME280;26392;42.696;23.350;2023-02-23T07:26:06;95256.53;;;6.62;100.00
40708;BME280;26392;42.696;23.350;2023-02-23T07:28:31;95246.91;;;6.78;100.00
40708;BME280;26392;42.696;23.350;2023-02-23T07:30:57;95251.41;;;6.96;100.00
40708;BME280;26392;42.696;23.350;2023-02-23T07:33:23;95250.84;;;7.17;100.00
40708;BME280;26392;42.696;23.350;2023-02-23T07:35:50;95238.34;;;7.28;100.00
40708;BME280;26392;42.696;23.350;2023-02-23T07:38:15;95244.94;;;7.32;100.00
40708;BME280;26392;42.696;23.350;2023-02-23T07:40:41;95246.81;;;7.44;100.00
40708;BME280;26392;42.696;23.350;2023-02-23T07:43:07;95238.31;;;7.52;100.00
40708;BME280;26392;42.696;23.350;2023-02-23T07:45:32;95246.31;;;7.70;100.00
40708;BME280;26392;42.696;23.350;2023-02-23T07:47:58;95241.19;;;7.85;98.82
40708;BME280;26392;42.696;23.350;2023-02-23T07:50:24;95247.56;;;7.91;96.65
40708;BME280;26392;42.696;23.350;2023-02-23T07:52:49;95240.13;;;7.98;96.33
40708;BME280;26392;42.696;23.350;2023-02-23T07:55:16;95237.25;;;8.05;95.29
40708;BME280;26392;42.696;23.350;2023-02-23T07:57:41;95233.19;;;8.19;93.81
40708;BME280;26392;42.696;23.350;2023-02-23T08:00:07;95244.00;;;8.31;92.43
40708;BME280;26392;42.696;23.350;2023-02-23T08:02:33;95235.25;;;8.41;90.87
40708;BME280;26392;42.696;23.350;2023-02-23T08:04:58;95239.25;;;8.38;90.45
40708;BME280;26392;42.696;23.350;2023-02-23T08:07:24;95229.38;;;8.61;88.96
40708;BME280;26392;42.696;23.350;2023-02-23T08:09:52;95229.13;;;8.79;87.89
40708;BME280;26392;42.696;23.350;2023-02-23T08:12:18;95232.25;;;8.71;86.80
40708;BME280;26392;42.696;23.350;2023-02-23T08:14:44;95232.81;;;8.56;87.27
40708;BME280;26392;42.696;23.350;2023-02-23T08:17:10;95224.94;;;8.71;87.55
40708;BME280;26392;42.696;23.350;2023-02-23T08:19:35;95230.94;;;8.90;86.82
40708;BME280;26392;42.696;23.350;2023-02-23T08:22:02;95228.41;;;9.01;85.38
40708;BME280;26392;42.696;23.350;2023-02-23T08:24:27;95224.59;;;9.02;85.15
40708;BME280;26392;42.696;23.350;2023-02-23T08:26:55;95233.25;;;9.15;83.38
40708;BME280;26392;42.696;23.350;2023-02-23T08:29:21;95227.56;;;9.34;82.46
40708;BME280;26392;42.696;23.350;2023-02-23T08:31:46;95220.81;;;9.19;81.75
40708;BME280;26392;42.696;23.350;2023-02-23T08:34:13;95233.66;;;9.41;81.56
40708;BME280;26392;42.696;23.350;2023-02-23T08:36:38;95229.50;;;9.55;80.66
40708;BME280;26392;42.696;23.350;2023-02-23T08:39:05;95229.47;;;9.72;79.60
40708;BME280;26392;42.696;23.350;2023-02-23T08:41:32;95231.47;;;9.82;78.46
40708;BME280;26392;42.696;23.350;2023-02-23T08:43:58;95213.41;;;9.93;78.45
40708;BME280;26392;42.696;23.350;2023-02-23T08:46:24;95222.75;;;10.02;76.73
40708;BME280;26392;42.696;23.350;2023-02-23T08:48:49;95224.06;;;10.21;76.40
40708;BME280;26392;42.696;23.350;2023-02-23T08:51:14;95220.16;;;10.34;74.17
40708;BME280;26392;42.696;23.350;2023-02-23T08:53:40;95220.16;;;10.34;73.99
40708;BME280;26392;42.696;23.350;2023-02-23T08:56:06;95228.50;;;10.49;72.71
40708;BME280;26392;42.696;23.350;2023-02-23T08:58:34;95228.81;;;10.53;72.15
40708;BME280;26392;42.696;23.350;2023-02-23T09:00:59;95219.84;;;10.58;71.64
40708;BME280;26392;42.696;23.350;2023-02-23T09:03:26;95223.50;;;10.68;70.84
40708;BME280;26392;42.696;23.350;2023-02-23T09:05:55;95223.34;;;10.80;70.40
40708;BME280;26392;42.696;23.350;2023-02-23T09:08:22;95222.16;;;11.03;69.00
40708;BME280;26392;42.696;23.350;2023-02-23T09:10:47;95223.41;;;11.17;68.38
40708;BME280;26392;42.696;23.350;2023-02-23T09:13:13;95218.25;;;11.21;66.87
40708;BME280;26392;42.696;23.350;2023-02-23T09:15:39;95213.84;;;11.15;67.08
40708;BME280;26392;42.696;23.350;2023-02-23T09:18:07;95216.41;;;11.37;66.61
40708;BME280;26392;42.696;23.350;2023-02-23T09:20:32;95213.81;;;11.52;65.79
40708;BME280;26392;42.696;23.350;2023-02-23T09:22:58;95215.03;;;11.72;64.64
40708;BME280;26392;42.696;23.350;2023-02-23T09:25:24;95211.56;;;11.86;63.92
40708;BME280;26392;42.696;23.350;2023-02-23T09:27:53;95211.84;;;11.90;63.42
40708;BME280;26392;42.696;23.350;2023-02-23T09:30:21;95210.53;;;11.98;62.86
40708;BME280;26392;42.696;23.350;2023-02-23T09:32:47;95210.34;;;12.20;62.68
40708;BME280;26392;42.696;23.350;2023-02-23T09:35:14;95216.94;;;12.34;60.46
40708;BME280;26392;42.696;23.350;2023-02-23T09:37:47;95218.28;;;12.26;60.94
40708;BME280;26392;42.696;23.350;2023-02-23T09:40:18;95217.22;;;12.38;60.47
40708;BME280;26392;42.696;23.350;2023-02-23T09:43:14;95217.00;;;12.54;61.27
40708;BME280;26392;42.696;23.350;2023-02-23T09:45:50;95219.22;;;12.68;59.90
40708;BME280;26392;42.696;23.350;2023-02-23T09:48:25;95207.78;;;12.86;59.16
40708;BME280;26392;42.696;23.350;2023-02-23T09:50:55;95206.41;;;12.84;57.56
40708;BME280;26392;42.696;23.350;2023-02-23T09:53:42;95206.69;;;12.92;58.29
40708;BME280;26392;42.696;23.350;2023-02-23T09:56:23;95200.69;;;13.06;57.08
40708;BME280;26392;42.696;23.350;2023-02-23T09:58:49;95201.22;;;13.18;56.67
40708;BME280;26392;42.696;23.350;2023-02-23T10:03:55;95203.97;;;13.28;56.15
40708;BME280;26392;42.696;23.350;2023-02-23T10:06:23;95203.69;;;13.35;55.54
40708;BME280;26392;42.696;23.350;2023-02-23T10:11:41;95192.75;;;13.40;55.26
40708;BME280;26392;42.696;23.350;2023-02-23T10:17:10;95186.91;;;13.72;54.42
40708;BME280;26392;42.696;23.350;2023-02-23T10:20:18;95186.06;;;13.87;53.56
40708;BME280;26392;42.696;23.350;2023-02-23T10:22:47;95185.44;;;14.05;53.45
40708;BME280;26392;42.696;23.350;2023-02-23T10:25:23;95179.69;;;14.12;52.86
40708;BME280;26392;42.696;23.350;2023-02-23T10:27:51;95184.28;;;14.17;52.70
40708;BME280;26392;42.696;23.350;2023-02-23T10:30:29;95173.53;;;14.30;52.86
40708;BME280;26392;42.696;23.350;2023-02-23T10:35:23;95168.38;;;14.29;51.84
40708;BME280;26392;42.696;23.350;2023-02-23T10:37:50;95167.84;;;14.17;51.86
40708;BME280;26392;42.696;23.350;2023-02-23T10:40:22;95162.91;;;14.24;51.62
40708;BME280;26392;42.696;23.350;2023-02-23T10:42:49;95155.22;;;14.26;52.19
40708;BME280;26392;42.696;23.350;2023-02-23T10:45:18;95158.41;;;14.43;52.07
40708;BME280;26392;42.696;23.350;2023-02-23T10:47:50;95146.28;;;14.60;51.66
40708;BME280;26392;42.696;23.350;2023-02-23T10:50:16;95151.44;;;14.66;51.40
40708;BME280;26392;42.696;23.350;2023-02-23T10:52:47;95148.94;;;14.70;51.39
40708;BME280;26392;42.696;23.350;2023-02-23T10:57:50;95132.59;;;14.60;51.58
40708;BME280;26392;42.696;23.350;2023-02-23T11:00:30;95126.38;;;14.83;51.16
40708;BME280;26392;42.696;23.350;2023-02-23T11:02:59;95135.25;;;15.04;50.50
40708;BME280;26392;42.696;23.350;2023-02-23T11:05:47;95130.69;;;15.24;49.71
40708;BME280;26392;42.696;23.350;2023-02-23T11:10:41;95124.03;;;15.30;48.98
40708;BME280;26392;42.696;23.350;2023-02-23T11:13:20;95125.13;;;15.29;48.79
40708;BME280;26392;42.696;23.350;2023-02-23T11:15:46;95118.09;;;15.47;48.16
40708;BME280;26392;42.696;23.350;2023-02-23T11:18:18;95120.59;;;15.43;48.21
40708;BME280;26392;42.696;23.350;2023-02-23T11:20:44;95114.09;;;15.34;47.88
40708;BME280;26392;42.696;23.350;2023-02-23T11:23:11;95110.84;;;15.56;47.53
40708;BME280;26392;42.696;23.350;2023-02-23T11:25:42;95108.50;;;15.73;46.78
40708;BME280;26392;42.696;23.350;2023-02-23T11:28:17;95112.53;;;16.05;46.08
40708;BME280;26392;42.696;23.350;2023-02-23T11:30:45;95108.28;;;15.94;46.25
40708;BME280;26392;42.696;23.350;2023-02-23T11:33:17;95100.78;;;16.18;45.70
40708;BME280;26392;42.696;23.350;2023-02-23T11:35:44;95098.78;;;16.24;45.33
40708;BME280;26392;42.696;23.350;2023-02-23T11:38:26;95095.44;;;16.46;45.10
40708;BME280;26392;42.696;23.350;2023-02-23T11:41:00;95089.41;;;16.63;44.79
40708;BME280;26392;42.696;23.350;2023-02-23T11:43:26;95094.41;;;16.23;45.08
40708;BME280;26392;42.696;23.350;2023-02-23T11:45:57;95070.63;;;16.13;45.63
40708;BME280;26392;42.696;23.350;2023-02-23T11:48:31;95092.94;;;16.30;45.04
40708;BME280;26392;42.696;23.350;2023-02-23T11:50:57;95078.50;;;16.58;44.01
40708;BME280;26392;42.696;23.350;2023-02-23T11:53:38;95090.88;;;16.74;43.12
40708;BME280;26392;42.696;23.350;2023-02-23T11:56:05;95075.81;;;16.90;42.75
40708;BME280;26392;42.696;23.350;2023-02-23T11:58:43;95070.81;;;16.92;42.61
40708;BME280;26392;42.696;23.350;2023-02-23T12:01:13;95083.50;;;17.07;42.26
40708;BME280;26392;42.696;23.350;2023-02-23T12:06:33;95079.28;;;17.42;42.04
40708;BME280;26392;42.696;23.350;2023-02-23T12:09:22;95076.66;;;17.51;41.71
40708;BME280;26392;42.696;23.350;2023-02-23T12:11:56;95075.00;;;17.50;41.25
40708;BME280;26392;42.696;23.350;2023-02-23T12:17:28;95078.28;;;17.52;40.67
40708;BME280;26392;42.696;23.350;2023-02-23T12:20:01;95069.41;;;17.69;40.81
40708;BME280;26392;42.696;23.350;2023-02-23T12:22:33;95073.09;;;17.51;40.85
40708;BME280;26392;42.696;23.350;2023-02-23T12:25:24;95069.91;;;17.71;40.46
40708;BME280;26392;42.696;23.350;2023-02-23T12:28:00;95064.25;;;17.81;40.00
40708;BME280;26392;42.696;23.350;2023-02-23T12:40:44;95058.44;;;18.33;38.91
40708;BME280;26392;42.696;23.350;2023-02-23T12:43:25;95052.94;;;18.19;39.32
40708;BME280;26392;42.696;23.350;2023-02-23T12:46:13;95067.25;;;18.21;39.26
40708;BME280;26392;42.696;23.350;2023-02-23T12:49:38;95052.38;;;18.45;39.16
40708;BME280;26392;42.696;23.350;2023-02-23T12:52:04;95057.78;;;18.50;38.79
40708;BME280;26392;42.696;23.350;2023-02-23T12:54:35;95059.94;;;18.39;39.44
40708;BME280;26392;42.696;23.350;2023-02-23T12:57:16;95047.44;;;18.55;39.14
40708;BME280;26392;42.696;23.350;2023-02-23T13:02:29;95050.25;;;18.42;39.08
40708;BME280;26392;42.696;23.350;2023-02-23T13:05:17;95052.56;;;18.48;39.31
40708;BME280;26392;42.696;23.350;2023-02-23T13:14:02;95038.97;;;18.52;38.56
40708;BME280;26392;42.696;23.350;2023-02-23T13:16:08;95047.78;;;18.04;39.04
40708;BME280;26392;42.696;23.350;2023-02-23T13:21:28;95040.97;;;17.87;39.67
40708;BME280;26392;42.696;23.350;2023-02-23T13:24:09;95043.69;;;18.15;39.31
40708;BME280;26392;42.696;23.350;2023-02-23T13:29:35;95037.06;;;18.02;39.34
40708;BME280;26392;42.696;23.350;2023-02-23T13:32:03;95036.03;;;18.12;39.51
40708;BME280;26392;42.696;23.350;2023-02-23T13:34:32;95033.13;;;18.17;39.43
40708;BME280;26392;42.696;23.350;2023-02-23T13:37:02;95041.53;;;18.12;39.60
40708;BME280;26392;42.696;23.350;2023-02-23T13:48:04;95041.66;;;18.07;39.49
40708;BME280;26392;42.696;23.350;2023-02-23T13:50:41;95038.19;;;18.01;39.27
40708;BME280;26392;42.696;23.350;2023-02-23T13:55:51;95035.00;;;18.08;39.25
40708;BME280;26392;42.696;23.350;2023-02-23T13:58:26;95044.78;;;18.14;39.11
40708;BME280;26392;42.696;23.350;2023-02-23T14:00:53;95042.84;;;18.15;38.68
40708;BME280;26392;42.696;23.350;2023-02-23T14:03:28;95041.53;;;18.12;38.83
40708;BME280;26392;42.696;23.350;2023-02-23T14:05:58;95045.13;;;18.13;38.98
40708;BME280;26392;42.696;23.350;2023-02-23T14:08:34;95044.59;;;18.10;38.49
40708;BME280;26392;42.696;23.350;2023-02-23T14:11:01;95044.16;;;18.17;38.66
40708;BME280;26392;42.696;23.350;2023-02-23T14:13:32;95048.16;;;18.11;38.66
40708;BME280;26392;42.696;23.350;2023-02-23T14:16:18;95055.44;;;17.65;39.91
40708;BME280;26392;42.696;23.350;2023-02-23T14:28:47;95055.47;;;16.34;47.59
40708;BME280;26392;42.696;23.350;2023-02-23T14:31:33;95060.63;;;16.41;47.90
40708;BME280;26392;42.696;23.350;2023-02-23T14:33:59;95060.22;;;16.10;48.88
40708;BME280;26392;42.696;23.350;2023-02-23T14:36:34;95054.34;;;15.98;49.68
40708;BME280;26392;42.696;23.350;2023-02-23T14:39:16;95052.47;;;15.74;50.18
40708;BME280;26392;42.696;23.350;2023-02-23T14:41:55;95059.00;;;15.78;50.28
40708;BME280;26392;42.696;23.350;2023-02-23T14:44:30;95057.88;;;15.79;50.46
40708;BME280;26392;42.696;23.350;2023-02-23T14:47:14;95065.47;;;15.87;49.88
40708;BME280;26392;42.696;23.350;2023-02-23T14:49:55;95061.69;;;15.83;49.31
40708;BME280;26392;42.696;23.350;2023-02-23T14:54:51;95061.75;;;15.78;49.38
40708;BME280;26392;42.696;23.350;2023-02-23T14:57:22;95058.25;;;15.73;48.88
40708;BME280;26392;42.696;23.350;2023-02-23T14:59:58;95072.00;;;15.67;49.16
40708;BME280;26392;42.696;23.350;2023-02-23T15:02:27;95069.78;;;15.45;49.38
40708;BME280;26392;42.696;23.350;2023-02-23T15:04:53;95050.81;;;15.25;50.28
40708;BME280;26392;42.696;23.350;2023-02-23T15:07:25;95065.38;;;15.20;50.52